Time;durP1;ratioP1;P1;durP2;ratioP2;P2;SDS_P1;SDS_P2;PMS_P1;PMS_P2;Temp;Humidity;BMP_temperature;BMP_pressure;BME280_temperature;BME280_humidity;BME280_pressure;Samples;Min_cycle;Max_cycle;Signal;HPM_P1;HPM_P2
2022/10/26 00:00:15;;;;;;;12.53;9.07;;;12.40;99.90;;;;;;5113588;27;20476;-68
2022/10/26 00:02:42;;;;;;;11.73;9.50;;;12.40;99.90;;;;;;5111472;27;20579;-68
2022/10/26 00:05:09;;;;;;;12.10;10.57;;;12.40;99.90;;;;;;5116202;27;20461;-68
2022/10/26 00:07:36;;;;;;;11.57;9.37;;;12.40;99.90;;;;;;5113736;27;20476;-68
2022/10/26 00:10:03;;;;;;;18.00;9.70;;;12.50;99.90;;;;;;5111243;27;20460;-70
2022/10/26 00:12:30;;;;;;;9.97;9.00;;;12.60;99.90;;;;;;5100771;28;20462;-71
2022/10/26 00:14:58;;;;;;;12.83;10.63;;;12.60;99.90;;;;;;5116647;27;20468;-68
2022/10/26 00:17:25;;;;;;;15.83;9.17;;;12.60;99.90;;;;;;5112666;27;20864;-68
2022/10/26 00:19:52;;;;;;;12.10;9.57;;;12.60;99.90;;;;;;5111050;27;20729;-71
2022/10/26 00:22:19;;;;;;;14.53;9.30;;;12.60;99.90;;;;;;5112247;27;20974;-70
2022/10/26 00:24:46;;;;;;;20.33;9.40;;;12.50;99.90;;;;;;5109200;27;20464;-71
2022/10/26 00:27:13;;;;;;;10.00;9.00;;;12.50;99.90;;;;;;5112353;27;20468;-72
2022/10/26 00:29:39;;;;;;;11.30;8.87;;;12.50;99.90;;;;;;5115572;27;20476;-71
2022/10/26 00:32:09;;;;;;;10.07;9.07;;;12.50;99.90;;;;;;5110775;27;20465;-68
2022/10/26 00:34:36;;;;;;;12.23;9.77;;;12.50;99.90;;;;;;5103117;27;20540;-69
2022/10/26 00:37:03;;;;;;;13.40;9.43;;;12.50;99.90;;;;;;5097973;27;20460;-68
2022/10/26 00:39:30;;;;;;;11.43;9.63;;;12.50;99.90;;;;;;5108027;28;20460;-69
2022/10/26 00:41:57;;;;;;;11.23;10.03;;;12.50;99.90;;;;;;5103927;27;20509;-70
2022/10/26 00:45:00;;;;;;;15.90;10.23;;;12.40;99.90;;;;;;5106414;28;20454;-68
2022/10/26 00:47:36;;;;;;;16.23;10.07;;;12.40;99.90;;;;;;5114508;28;21010;-68
2022/10/26 00:50:07;;;;;;;13.50;9.97;;;12.30;99.90;;;;;;5115814;28;20516;-68
2022/10/26 00:52:36;;;;;;;19.40;9.70;;;12.30;99.90;;;;;;5114579;28;20947;-70
2022/10/26 00:55:04;;;;;;;22.13;10.83;;;12.40;99.90;;;;;;5113479;28;20513;-71
2022/10/26 00:57:31;;;;;;;11.60;9.80;;;12.30;99.90;;;;;;5098172;28;20953;-68
2022/10/26 01:00:00;;;;;;;12.37;9.87;;;12.30;99.90;;;;;;5105413;27;20839;-70
2022/10/26 01:02:27;;;;;;;15.20;9.73;;;12.30;99.90;;;;;;5108617;28;20492;-68
2022/10/26 01:04:57;;;;;;;17.40;10.10;;;12.30;99.90;;;;;;5095303;28;20468;-71
2022/10/26 01:07:25;;;;;;;16.03;9.07;;;12.30;99.90;;;;;;5098863;28;20449;-71
2022/10/26 01:09:54;;;;;;;11.20;9.50;;;12.30;99.90;;;;;;5101383;27;20464;-68
2022/10/26 01:12:21;;;;;;;12.80;9.90;;;12.40;99.90;;;;;;5103913;28;20820;-70
2022/10/26 01:14:49;;;;;;;10.53;9.63;;;12.40;99.90;;;;;;5114324;28;20465;-68
2022/10/26 01:17:28;;;;;;;13.10;10.07;;;12.40;99.90;;;;;;5115192;28;20453;-68
2022/10/26 01:20:35;;;;;;;12.73;9.70;;;12.50;99.90;;;;;;5099167;28;20525;-69
2022/10/26 01:23:07;;;;;;;12.73;10.00;;;12.40;99.90;;;;;;5109398;28;20489;-68
2022/10/26 01:26:01;;;;;;;13.90;10.23;;;12.40;99.90;;;;;;5110287;28;20456;-69
2022/10/26 01:28:46;;;;;;;15.93;9.40;;;12.40;99.90;;;;;;5087287;27;20489;-71
2022/10/26 01:31:20;;;;;;;14.17;10.10;;;12.50;99.90;;;;;;5108774;27;20501;-68
2022/10/26 01:33:54;;;;;;;15.93;9.70;;;12.50;99.90;;;;;;5105714;28;20470;-71
2022/10/26 01:36:31;;;;;;;15.20;9.30;;;12.50;99.90;;;;;;5108355;27;20829;-68
2022/10/26 01:39:03;;;;;;;13.07;9.50;;;12.50;99.90;;;;;;5116560;27;20476;-68
2022/10/26 01:41:34;;;;;;;13.63;10.10;;;12.50;99.90;;;;;;5113857;27;20847;-69
2022/10/26 01:44:04;;;;;;;14.47;10.10;;;12.50;99.90;;;;;;5107824;27;20901;-68
2022/10/26 01:46:37;;;;;;;9.77;8.93;;;12.50;99.90;;;;;;5111362;27;20536;-68
2022/10/26 01:49:09;;;;;;;14.33;9.57;;;12.60;99.90;;;;;;5107822;27;20461;-69
2022/10/26 01:51:39;;;;;;;17.57;9.47;;;12.60;99.90;;;;;;5112726;27;20456;-71
2022/10/26 01:54:06;;;;;;;9.83;8.80;;;12.70;99.90;;;;;;5116815;27;20694;-68
2022/10/26 01:56:38;;;;;;;17.43;8.93;;;12.70;99.90;;;;;;5113142;27;20468;-68
2022/10/26 01:59:26;;;;;;;12.63;10.20;;;12.80;99.90;;;;;;5112673;27;20472;-71
2022/10/26 02:02:29;;;;;;;15.97;9.20;;;12.80;99.90;;;;;;5117486;27;20543;-70
2022/10/26 02:05:20;;;;;;;13.50;10.87;;;12.90;99.90;;;;;;5098907;27;20654;-68
2022/10/26 02:07:56;;;;;;;11.43;9.63;;;12.90;99.90;;;;;;5097000;27;20453;-68
2022/10/26 02:10:35;;;;;;;11.90;9.23;;;12.90;99.90;;;;;;5117831;27;20455;-68
2022/10/26 02:13:09;;;;;;;14.07;9.60;;;13.00;99.90;;;;;;5107892;27;20957;-71
2022/10/26 02:15:44;;;;;;;11.13;9.30;;;13.00;99.90;;;;;;5116188;27;20498;-70
2022/10/26 02:18:19;;;;;;;15.23;9.33;;;13.00;99.90;;;;;;5113346;27;20457;-69
2022/10/26 02:20:50;;;;;;;15.70;9.90;;;13.00;99.90;;;;;;5101128;27;20457;-69
2022/10/26 02:23:19;;;;;;;17.93;9.60;;;13.00;99.90;;;;;;5109823;27;20894;-69
2022/10/26 02:25:50;;;;;;;12.93;10.47;;;13.00;99.90;;;;;;5113734;27;20457;-68
2022/10/26 02:28:21;;;;;;;11.83;9.87;;;13.00;99.90;;;;;;5116304;27;20488;-70
2022/10/26 02:30:54;;;;;;;13.87;11.33;;;13.00;99.90;;;;;;5103750;27;20463;-69
2022/10/26 02:33:24;;;;;;;12.80;11.23;;;13.00;99.90;;;;;;5105032;27;20485;-68
2022/10/26 02:35:53;;;;;;;14.40;10.40;;;13.00;99.90;;;;;;5114954;27;20925;-69
2022/10/26 02:38:22;;;;;;;17.60;10.80;;;13.00;99.90;;;;;;5113323;27;20880;-68
2022/10/26 02:40:52;;;;;;;13.77;10.30;;;13.00;99.90;;;;;;5104147;27;20530;-69
2022/10/26 02:43:21;;;;;;;16.77;10.93;;;13.00;99.90;;;;;;5096404;28;21019;-68
2022/10/26 02:45:51;;;;;;;16.43;10.60;;;13.00;99.90;;;;;;5115191;27;20556;-70
2022/10/26 02:48:19;;;;;;;11.70;10.33;;;13.00;99.90;;;;;;5105977;27;20543;-69
2022/10/26 02:51:00;;;;;;;17.47;12.23;;;13.00;99.90;;;;;;5106938;27;20831;-69
2022/10/26 02:53:32;;;;;;;16.20;11.40;;;13.10;99.90;;;;;;5112810;27;20796;-69
2022/10/26 02:56:04;;;;;;;11.40;10.23;;;13.10;99.90;;;;;;5110982;27;20960;-69
2022/10/26 02:58:37;;;;;;;13.90;10.40;;;13.10;99.90;;;;;;5101224;27;20454;-69
2022/10/26 03:01:04;;;;;;;13.97;11.47;;;13.10;99.90;;;;;;5103341;27;20464;-68
2022/10/26 03:03:31;;;;;;;15.33;10.40;;;13.10;99.90;;;;;;5110685;27;20492;-70
2022/10/26 03:05:59;;;;;;;20.53;11.27;;;13.10;99.90;;;;;;5116864;27;20557;-70
2022/10/26 03:08:27;;;;;;;14.33;10.67;;;13.10;99.90;;;;;;5112519;27;20825;-69
2022/10/26 03:10:54;;;;;;;17.47;10.33;;;13.10;99.90;;;;;;5100498;27;20886;-69
2022/10/26 03:13:21;;;;;;;21.67;10.67;;;13.10;99.90;;;;;;5104728;27;20456;-69
2022/10/26 03:15:48;;;;;;;19.80;10.63;;;13.00;99.90;;;;;;5100338;27;20469;-69
2022/10/26 03:18:15;;;;;;;17.00;9.97;;;13.00;99.90;;;;;;5105316;27;20530;-68
2022/10/26 03:20:44;;;;;;;14.70;10.70;;;13.00;99.90;;;;;;5115650;27;20457;-69
2022/10/26 03:23:12;;;;;;;20.27;10.37;;;13.00;99.90;;;;;;5112994;27;20533;-69
2022/10/26 03:25:40;;;;;;;14.43;10.57;;;13.00;99.90;;;;;;5116094;27;20457;-70
2022/10/26 03:28:07;;;;;;;17.13;11.10;;;13.00;99.90;;;;;;5113480;27;20907;-69
2022/10/26 03:30:34;;;;;;;14.17;9.40;;;13.10;99.90;;;;;;5109182;27;20492;-69
2022/10/26 03:33:01;;;;;;;17.77;10.47;;;13.10;99.90;;;;;;5115897;27;21221;-69
2022/10/26 03:35:28;;;;;;;13.80;10.37;;;13.10;99.90;;;;;;5115104;27;20580;-69
2022/10/26 03:37:54;;;;;;;13.80;10.40;;;13.20;99.90;;;;;;5117648;27;20534;-69
2022/10/26 03:40:23;;;;;;;13.20;10.80;;;13.20;99.90;;;;;;5119337;27;20881;-70
2022/10/26 03:42:50;;;;;;;13.47;10.13;;;13.20;99.90;;;;;;5098660;27;20470;-69
2022/10/26 03:45:17;;;;;;;15.53;10.50;;;13.20;99.90;;;;;;5099054;27;20937;-69
2022/10/26 03:47:44;;;;;;;14.13;9.90;;;13.20;99.90;;;;;;5098366;27;20551;-69
2022/10/26 03:50:13;;;;;;;23.13;10.57;;;13.20;99.90;;;;;;5113844;27;20983;-69
2022/10/26 03:52:41;;;;;;;10.87;9.80;;;13.30;99.90;;;;;;5109946;27;20761;-69
2022/10/26 03:55:09;;;;;;;10.07;9.40;;;13.30;99.90;;;;;;5109045;27;20484;-68
2022/10/26 03:57:40;;;;;;;18.17;10.70;;;13.30;99.90;;;;;;5089507;27;20466;-69
2022/10/26 04:00:08;;;;;;;11.80;9.27;;;13.30;99.90;;;;;;5103448;27;20549;-69
2022/10/26 04:02:35;;;;;;;13.13;9.87;;;13.30;99.90;;;;;;5104526;27;20469;-72
2022/10/26 04:05:02;;;;;;;14.83;10.17;;;13.30;99.90;;;;;;5111829;27;20519;-71
2022/10/26 04:07:29;;;;;;;11.13;9.93;;;13.30;99.90;;;;;;5110418;27;20479;-69
2022/10/26 04:09:56;;;;;;;10.57;9.77;;;13.30;99.90;;;;;;5103347;27;21038;-69
2022/10/26 04:12:23;;;;;;;11.40;10.30;;;13.30;99.90;;;;;;5111498;27;20948;-68
2022/10/26 04:14:52;;;;;;;16.00;10.07;;;13.30;99.90;;;;;;5101630;27;20963;-69
2022/10/26 04:17:19;;;;;;;10.13;9.13;;;13.20;99.90;;;;;;5115504;27;20448;-69
2022/10/26 04:19:46;;;;;;;11.13;10.03;;;13.20;99.90;;;;;;5105972;27;20484;-69
2022/10/26 04:22:13;;;;;;;13.00;10.20;;;13.20;99.90;;;;;;5112058;27;20861;-69
2022/10/26 04:24:41;;;;;;;10.73;9.70;;;13.20;99.90;;;;;;5097755;27;20973;-69
2022/10/26 04:27:08;;;;;;;17.67;9.80;;;13.20;99.90;;;;;;5108574;27;21157;-70
2022/10/26 04:29:35;;;;;;;12.83;9.67;;;13.10;99.90;;;;;;5113696;27;20497;-69
2022/10/26 04:32:03;;;;;;;10.10;9.20;;;13.20;99.90;;;;;;5113716;27;20490;-69
2022/10/26 04:34:30;;;;;;;18.63;10.80;;;13.20;99.90;;;;;;5113025;27;20462;-69
2022/10/26 04:36:57;;;;;;;10.63;9.70;;;13.20;99.90;;;;;;5110479;28;20456;-69
2022/10/26 04:39:25;;;;;;;10.73;9.70;;;13.20;99.90;;;;;;5105375;27;20461;-69
2022/10/26 04:41:53;;;;;;;10.17;9.10;;;13.30;99.90;;;;;;5098726;28;20955;-70
2022/10/26 04:44:20;;;;;;;16.03;9.40;;;13.30;99.90;;;;;;5101472;28;20484;-69
2022/10/26 04:46:48;;;;;;;10.43;9.33;;;13.40;99.90;;;;;;5113222;27;20998;-71
2022/10/26 04:49:16;;;;;;;11.60;9.53;;;13.50;99.90;;;;;;5098674;27;20972;-72
2022/10/26 04:51:43;;;;;;;10.77;9.67;;;13.60;99.90;;;;;;5101217;28;20465;-71
2022/10/26 04:54:10;;;;;;;10.40;9.70;;;13.60;99.90;;;;;;5111038;28;20469;-70
2022/10/26 04:56:38;;;;;;;11.13;9.50;;;13.60;99.90;;;;;;5110822;28;20891;-69
2022/10/26 04:59:05;;;;;;;9.73;9.10;;;13.70;99.90;;;;;;5109836;28;20469;-72
2022/10/26 05:01:32;;;;;;;15.87;9.90;;;13.70;99.90;;;;;;5110852;28;20456;-72
2022/10/26 05:03:59;;;;;;;13.80;9.87;;;13.70;99.90;;;;;;5117200;27;20485;-71
2022/10/26 05:06:27;;;;;;;10.60;9.70;;;13.70;99.90;;;;;;5118204;27;20457;-69
2022/10/26 05:08:53;;;;;;;10.20;9.20;;;13.70;99.90;;;;;;5118034;27;20469;-71
2022/10/26 05:11:20;;;;;;;13.37;8.93;;;13.70;99.90;;;;;;5116441;27;21304;-69
2022/10/26 05:13:48;;;;;;;9.77;8.97;;;13.70;99.90;;;;;;5115816;27;20564;-70
2022/10/26 05:16:15;;;;;;;9.80;8.90;;;13.70;99.90;;;;;;5112004;27;20559;-69
2022/10/26 05:18:41;;;;;;;14.23;9.70;;;13.70;99.90;;;;;;5110777;27;20556;-71
2022/10/26 05:21:09;;;;;;;12.03;8.93;;;13.80;99.90;;;;;;5117750;27;20464;-70
2022/10/26 05:23:37;;;;;;;10.20;8.80;;;13.90;99.90;;;;;;5116807;27;20468;-69
2022/10/26 05:26:05;;;;;;;8.60;7.97;;;13.90;99.90;;;;;;5114780;27;20534;-70
2022/10/26 05:28:31;;;;;;;11.07;9.40;;;13.90;99.90;;;;;;5112828;27;21021;-72
2022/10/26 05:30:58;;;;;;;11.97;9.37;;;13.90;99.90;;;;;;5115623;27;20461;-70
2022/10/26 05:33:26;;;;;;;17.67;9.00;;;13.90;99.90;;;;;;5117061;27;20556;-70
2022/10/26 05:35:54;;;;;;;9.50;8.67;;;13.90;99.90;;;;;;5115558;27;20464;-72
2022/10/26 05:38:22;;;;;;;9.37;8.63;;;13.90;99.90;;;;;;5112327;27;21031;-69
2022/10/26 05:40:51;;;;;;;22.27;10.27;;;13.90;99.90;;;;;;5111984;27;20456;-70
2022/10/26 05:43:19;;;;;;;10.43;9.63;;;14.00;99.90;;;;;;5113327;27;20460;-70
2022/10/26 05:45:46;;;;;;;9.60;8.90;;;14.00;99.90;;;;;;5109605;27;20591;-70
2022/10/26 05:48:13;;;;;;;10.40;9.50;;;14.00;99.90;;;;;;5112613;27;20457;-68
2022/10/26 05:50:40;;;;;;;10.63;9.80;;;14.00;99.90;;;;;;5111894;27;20465;-69
2022/10/26 05:53:08;;;;;;;10.03;9.53;;;14.00;99.90;;;;;;5112312;27;20464;-70
2022/10/26 05:55:36;;;;;;;9.67;8.97;;;14.10;99.90;;;;;;5113319;27;21535;-70
2022/10/26 05:58:09;;;;;;;11.27;10.00;;;14.00;99.90;;;;;;5112689;27;20553;-70
2022/10/26 06:00:37;;;;;;;9.83;9.10;;;14.10;99.90;;;;;;5114088;27;20526;-70
2022/10/26 06:03:21;;;;;;;10.67;9.73;;;14.10;99.90;;;;;;5110999;27;20457;-69
2022/10/26 06:05:53;;;;;;;10.10;9.13;;;14.10;99.90;;;;;;5114292;27;20868;-69
2022/10/26 06:08:20;;;;;;;9.63;8.87;;;14.20;99.90;;;;;;5108845;27;20468;-69
2022/10/26 06:10:48;;;;;;;10.97;9.40;;;14.20;99.90;;;;;;5108723;27;20468;-71
2022/10/26 06:13:17;;;;;;;9.50;8.80;;;14.20;99.90;;;;;;5112876;27;20491;-69
2022/10/26 06:15:55;;;;;;;11.93;9.20;;;14.40;99.90;;;;;;5112729;27;20460;-72
2022/10/26 06:18:29;;;;;;;9.60;8.80;;;14.30;99.90;;;;;;5108330;27;20461;-72
2022/10/26 06:21:10;;;;;;;10.03;9.43;;;14.30;99.90;;;;;;5107840;27;20957;-70
2022/10/26 06:23:44;;;;;;;10.53;9.57;;;14.30;99.90;;;;;;5115204;27;20477;-68
2022/10/26 06:26:22;;;;;;;10.93;9.97;;;14.30;99.90;;;;;;5107569;27;20463;-71
2022/10/26 06:28:59;;;;;;;11.93;10.30;;;14.30;99.90;;;;;;5108402;27;20544;-70
2022/10/26 06:31:26;;;;;;;16.83;9.57;;;14.30;99.90;;;;;;5108271;27;20456;-69
2022/10/26 06:33:59;;;;;;;10.30;9.70;;;14.30;99.90;;;;;;5112986;27;20488;-72
2022/10/26 06:36:27;;;;;;;10.10;9.30;;;14.30;99.90;;;;;;5109238;27;20452;-71
2022/10/26 06:38:59;;;;;;;10.73;9.47;;;14.30;99.90;;;;;;5109065;27;20480;-69
2022/10/26 06:41:27;;;;;;;10.53;9.30;;;14.40;99.90;;;;;;5113613;27;20464;-70
2022/10/26 06:43:55;;;;;;;12.63;9.37;;;14.50;99.90;;;;;;5114069;27;20533;-70
2022/10/26 06:46:31;;;;;;;12.50;9.37;;;14.60;99.90;;;;;;5112025;27;20825;-70
2022/10/26 06:49:06;;;;;;;20.33;10.27;;;14.70;99.90;;;;;;5110368;27;20515;-69
2022/10/26 06:51:40;;;;;;;9.93;9.43;;;14.60;99.90;;;;;;5103433;27;20456;-70
2022/10/26 06:54:13;;;;;;;10.87;10.27;;;14.60;99.90;;;;;;5108446;27;20464;-70
2022/10/26 06:56:41;;;;;;;10.93;10.20;;;14.60;99.90;;;;;;5112344;27;20468;-70
2022/10/26 06:59:17;;;;;;;11.57;10.87;;;14.60;99.90;;;;;;5104105;27;20883;-70
2022/10/26 07:01:44;;;;;;;11.40;10.47;;;14.60;99.90;;;;;;5107868;27;20460;-73
2022/10/26 07:04:11;;;;;;;10.37;9.87;;;14.70;99.90;;;;;;5110629;27;20483;-70
2022/10/26 07:06:38;;;;;;;10.17;9.60;;;14.70;99.90;;;;;;5113768;27;21014;-70
2022/10/26 07:09:05;;;;;;;10.60;10.00;;;14.70;99.90;;;;;;5111106;27;20490;-70
2022/10/26 07:11:32;;;;;;;13.50;10.63;;;14.80;99.90;;;;;;5111300;27;20461;-73
2022/10/26 07:13:59;;;;;;;10.53;9.83;;;14.90;99.90;;;;;;5111406;27;20975;-70
2022/10/26 07:16:28;;;;;;;14.23;10.27;;;15.00;99.90;;;;;;5106184;27;20864;-69
2022/10/26 07:18:55;;;;;;;10.30;9.80;;;15.00;99.90;;;;;;5097090;27;20476;-70
2022/10/26 07:21:22;;;;;;;15.40;10.23;;;15.10;99.90;;;;;;5103155;27;20465;-69
2022/10/26 07:23:48;;;;;;;10.77;10.17;;;15.10;99.90;;;;;;5103297;27;20460;-71
2022/10/26 07:26:15;;;;;;;11.73;10.50;;;15.20;99.90;;;;;;5101066;27;20470;-70
2022/10/26 07:28:42;;;;;;;11.20;10.50;;;15.10;99.90;;;;;;5104640;27;20485;-73
2022/10/26 07:31:09;;;;;;;11.70;10.50;;;15.10;99.90;;;;;;5098761;27;20959;-72
2022/10/26 07:33:37;;;;;;;11.53;10.43;;;15.00;99.90;;;;;;5097898;27;20525;-70
2022/10/26 07:36:04;;;;;;;11.80;10.80;;;15.00;99.90;;;;;;5102358;27;20856;-70
2022/10/26 07:38:30;;;;;;;11.47;10.37;;;15.10;99.90;;;;;;5106529;27;20472;-70
2022/10/26 07:40:57;;;;;;;11.17;10.30;;;15.20;99.90;;;;;;5105945;27;20461;-70
2022/10/26 07:43:24;;;;;;;12.70;11.50;;;15.20;99.90;;;;;;5096747;27;20556;-73
2022/10/26 07:45:51;;;;;;;16.83;11.13;;;15.30;99.90;;;;;;5093677;28;20848;-71
2022/10/26 07:48:18;;;;;;;13.57;12.47;;;15.30;99.90;;;;;;5099818;28;20449;-69
2022/10/26 07:50:46;;;;;;;12.87;11.80;;;15.30;99.90;;;;;;5107334;27;20465;-73
2022/10/26 07:53:13;;;;;;;13.10;11.53;;;15.30;99.90;;;;;;5100518;28;20453;-70
2022/10/26 07:55:40;;;;;;;12.50;11.60;;;15.30;99.90;;;;;;5108569;27;20461;-71
2022/10/26 07:58:07;;;;;;;12.73;11.63;;;15.30;99.90;;;;;;5109488;27;20453;-71
2022/10/26 08:00:34;;;;;;;12.30;11.33;;;15.30;99.90;;;;;;5105530;27;20942;-71
2022/10/26 08:03:01;;;;;;;12.90;12.00;;;15.30;99.90;;;;;;5111531;27;20456;-69
2022/10/26 08:05:28;;;;;;;13.10;12.00;;;15.40;99.90;;;;;;5106947;27;20492;-72
2022/10/26 08:07:56;;;;;;;13.30;12.03;;;15.50;99.90;;;;;;5108775;27;20457;-70
2022/10/26 08:10:23;;;;;;;13.07;12.00;;;15.60;99.90;;;;;;5107881;27;20518;-70
2022/10/26 08:12:53;;;;;;;12.47;11.40;;;15.70;99.90;;;;;;5107618;27;20801;-71
2022/10/26 08:15:21;;;;;;;13.50;12.40;;;15.80;99.90;;;;;;5105751;27;20465;-70
2022/10/26 08:17:48;;;;;;;14.07;12.70;;;16.00;99.90;;;;;;5103430;27;20461;-72
2022/10/26 08:20:16;;;;;;;15.60;12.80;;;16.00;99.90;;;;;;5107647;27;20469;-70
2022/10/26 08:22:42;;;;;;;13.23;12.43;;;15.90;99.90;;;;;;5101688;27;20550;-70
2022/10/26 08:25:10;;;;;;;13.67;12.50;;;15.90;99.90;;;;;;5104982;27;20484;-70
2022/10/26 08:27:38;;;;;;;14.23;12.80;;;15.90;99.90;;;;;;5109090;27;21041;-70
2022/10/26 08:30:05;;;;;;;12.90;12.20;;;15.80;99.90;;;;;;5108104;27;20463;-70
2022/10/26 08:32:33;;;;;;;13.47;12.10;;;15.80;99.90;;;;;;5111001;27;20509;-70
2022/10/26 08:35:00;;;;;;;13.40;12.00;;;15.90;99.90;;;;;;5107612;27;20488;-70
2022/10/26 08:37:27;;;;;;;12.57;11.67;;;16.00;99.90;;;;;;5108374;27;20866;-73
2022/10/26 08:39:54;;;;;;;13.20;12.10;;;16.10;99.90;;;;;;5107231;27;20994;-70
2022/10/26 08:42:28;;;;;;;12.70;11.90;;;16.10;99.90;;;;;;5110381;28;20849;-71
2022/10/26 08:45:02;;;;;;;13.97;12.73;;;16.30;99.90;;;;;;5099291;28;20775;-70
2022/10/26 08:47:32;;;;;;;13.97;12.63;;;16.30;99.90;;;;;;5106884;28;20459;-70
2022/10/26 08:50:06;;;;;;;13.00;12.03;;;16.30;99.90;;;;;;5105929;28;20457;-70
2022/10/26 08:52:38;;;;;;;13.13;12.13;;;16.30;99.90;;;;;;5106277;28;20461;-73
2022/10/26 08:55:14;;;;;;;13.90;12.60;;;16.60;99.90;;;;;;5104541;28;20854;-72
2022/10/26 08:57:43;;;;;;;13.17;12.30;;;16.70;99.90;;;;;;5108975;28;20460;-71
2022/10/26 09:00:15;;;;;;;13.60;12.43;;;16.60;99.90;;;;;;5106036;28;20461;-70
2022/10/26 09:02:42;;;;;;;14.10;12.70;;;16.60;99.90;;;;;;5106960;28;20855;-70
2022/10/26 09:05:15;;;;;;;13.80;12.37;;;16.70;99.90;;;;;;5105172;28;20649;-72
2022/10/26 09:07:50;;;;;;;12.90;12.20;;;16.70;99.90;;;;;;5108861;28;20480;-69
2022/10/26 09:10:31;;;;;;;13.67;12.40;;;16.80;99.90;;;;;;5105453;28;20460;-70
2022/10/26 09:13:06;;;;;;;13.73;12.60;;;16.90;99.90;;;;;;5111280;28;20560;-72
2022/10/26 09:15:42;;;;;;;13.97;12.57;;;17.10;99.90;;;;;;5108440;28;20682;-70
2022/10/26 09:18:27;;;;;;;13.70;12.60;;;17.20;99.90;;;;;;5107760;28;20511;-70
2022/10/26 09:21:16;;;;;;;12.87;11.97;;;17.20;99.90;;;;;;5104726;28;20456;-71
2022/10/26 09:23:57;;;;;;;15.10;12.70;;;17.30;99.90;;;;;;5107638;28;20514;-71
2022/10/26 09:26:37;;;;;;;13.80;12.80;;;17.40;99.90;;;;;;5106301;28;20585;-70
2022/10/26 09:29:12;;;;;;;14.80;13.17;;;17.60;99.90;;;;;;5102467;28;20517;-70
2022/10/26 09:31:40;;;;;;;14.03;13.13;;;17.80;99.90;;;;;;5104349;28;20495;-70
2022/10/26 09:34:12;;;;;;;13.50;12.77;;;17.90;99.90;;;;;;5102966;28;20461;-70
2022/10/26 09:36:39;;;;;;;13.20;12.23;;;18.00;99.90;;;;;;5104172;28;20468;-73
2022/10/26 09:39:15;;;;;;;12.80;12.10;;;18.00;99.90;;;;;;5098534;28;20471;-71
2022/10/26 09:41:46;;;;;;;13.40;12.50;;;18.10;99.90;;;;;;5102139;28;21096;-73
2022/10/26 09:44:23;;;;;;;14.70;13.30;;;18.20;99.90;;;;;;5104797;28;20796;-70
2022/10/26 09:46:56;;;;;;;13.03;12.10;;;18.20;99.90;;;;;;5102029;28;20496;-73
2022/10/26 09:49:31;;;;;;;12.87;12.07;;;18.20;99.90;;;;;;5102785;27;20461;-71
2022/10/26 09:51:58;;;;;;;12.50;11.70;;;18.30;99.90;;;;;;5101401;27;20466;-71
2022/10/26 09:54:25;;;;;;;13.20;12.40;;;18.40;99.90;;;;;;5106490;27;20514;-70
2022/10/26 09:56:55;;;;;;;13.63;12.63;;;18.60;99.90;;;;;;5113787;27;20456;-72
2022/10/26 09:59:25;;;;;;;14.00;13.10;;;18.70;99.90;;;;;;5108398;27;20500;-69
2022/10/26 10:01:52;;;;;;;14.30;13.03;;;18.80;99.90;;;;;;5112079;27;20554;-71
2022/10/26 10:04:21;;;;;;;13.63;12.73;;;19.00;99.90;;;;;;5099881;27;20467;-72
2022/10/26 10:06:49;;;;;;;14.03;13.00;;;19.00;99.90;;;;;;5108206;27;20823;-70
2022/10/26 10:09:18;;;;;;;14.33;13.17;;;19.20;99.90;;;;;;5105071;27;20466;-70
2022/10/26 10:11:53;;;;;;;13.60;12.90;;;19.40;99.90;;;;;;5109151;27;20465;-71
2022/10/26 10:14:21;;;;;;;15.00;13.83;;;19.90;99.90;;;;;;5108372;27;20476;-71
2022/10/26 10:16:55;;;;;;;15.07;13.70;;;20.40;99.90;;;;;;5107649;27;20513;-72
2022/10/26 10:19:24;;;;;;;14.43;13.47;;;21.00;99.90;;;;;;5104743;27;20725;-71
2022/10/26 10:21:54;;;;;;;14.93;13.60;;;21.00;99.90;;;;;;5104582;27;20453;-73
2022/10/26 10:24:27;;;;;;;14.30;13.50;;;20.90;99.90;;;;;;5098118;27;20576;-71
2022/10/26 10:27:00;;;;;;;14.80;13.90;;;21.00;99.90;;;;;;5101807;27;20486;-71
2022/10/26 10:29:28;;;;;;;15.00;13.60;;;21.40;99.90;;;;;;5103755;27;20855;-72
2022/10/26 10:31:58;;;;;;;14.57;13.57;;;21.70;99.90;;;;;;5107654;27;20807;-70
2022/10/26 10:34:25;;;;;;;14.17;13.30;;;21.60;99.90;;;;;;5108609;27;20485;-71
2022/10/26 10:36:53;;;;;;;14.37;13.47;;;21.80;99.90;;;;;;5108931;27;20464;-71
2022/10/26 10:39:38;;;;;;;14.23;13.50;;;21.50;99.90;;;;;;5104600;27;20465;-71
2022/10/26 10:42:14;;;;;;;14.93;13.77;;;21.50;99.90;;;;;;5104597;28;20510;-71
2022/10/26 10:44:44;;;;;;;13.87;13.17;;;21.70;99.90;;;;;;5109951;27;20837;-70
2022/10/26 10:47:20;;;;;;;15.20;14.00;;;21.70;99.90;;;;;;5105105;27;20492;-70
2022/10/26 10:49:53;;;;;;;14.67;13.67;;;21.80;99.90;;;;;;5104930;27;20521;-72
2022/10/26 10:52:26;;;;;;;14.57;13.60;;;22.10;99.90;;;;;;5103140;27;20457;-75
2022/10/26 10:55:08;;;;;;;14.77;13.93;;;22.40;99.90;;;;;;5107899;27;20963;-71
2022/10/26 10:57:46;;;;;;;14.83;13.50;;;22.30;99.90;;;;;;5104095;27;21305;-73
2022/10/26 11:00:14;;;;;;;14.60;13.30;;;22.30;99.90;;;;;;5107207;27;20464;-70
2022/10/26 11:03:04;;;;;;;14.03;13.20;;;22.30;99.90;;;;;;5102409;27;20971;-73
2022/10/26 11:06:00;;;;;;;14.90;14.10;;;22.40;99.90;;;;;;5102449;27;20489;-69
2022/10/26 11:08:31;;;;;;;15.03;14.10;;;22.50;99.90;;;;;;5096861;28;20461;-71
2022/10/26 11:11:02;;;;;;;14.50;13.80;;;22.60;99.90;;;;;;5105419;27;20465;-70
2022/10/26 11:13:35;;;;;;;15.77;14.43;;;22.90;99.90;;;;;;5111466;27;20518;-71
2022/10/26 11:16:05;;;;;;;15.33;13.73;;;23.10;99.90;;;;;;5106216;27;20460;-73
2022/10/26 11:18:39;;;;;;;14.93;14.03;;;23.20;99.90;;;;;;5109140;27;20819;-74
2022/10/26 11:21:17;;;;;;;14.27;13.47;;;23.20;99.90;;;;;;5103799;27;20735;-69
2022/10/26 11:23:48;;;;;;;14.63;13.80;;;22.80;99.90;;;;;;5107736;27;20477;-69
2022/10/26 11:26:20;;;;;;;14.37;13.57;;;22.30;99.90;;;;;;5107000;27;20551;-69
2022/10/26 11:28:50;;;;;;;13.80;12.87;;;22.30;99.90;;;;;;5103195;27;20499;-70
2022/10/26 11:31:21;;;;;;;14.80;14.00;;;22.80;99.90;;;;;;5106307;27;20453;-72
2022/10/26 11:33:58;;;;;;;14.10;13.00;;;23.10;99.90;;;;;;5107588;27;20452;-70
2022/10/26 11:36:49;;;;;;;13.97;13.17;;;23.20;99.90;;;;;;5105230;27;20452;-69
2022/10/26 11:39:23;;;;;;;14.73;13.83;;;23.30;99.90;;;;;;5105472;27;20453;-70
2022/10/26 11:41:55;;;;;;;13.60;12.93;;;23.00;99.90;;;;;;5107945;27;20547;-69
2022/10/26 11:44:28;;;;;;;14.40;13.60;;;23.30;99.90;;;;;;5108235;27;20461;-71
2022/10/26 11:46:57;;;;;;;14.40;13.30;;;23.60;99.90;;;;;;5103670;27;20557;-71
2022/10/26 11:49:30;;;;;;;13.83;13.10;;;23.70;99.90;;;;;;5110559;27;20456;-69
2022/10/26 11:52:06;;;;;;;18.33;13.83;;;23.50;99.90;;;;;;5104818;27;20454;-72
2022/10/26 11:54:37;;;;;;;13.80;13.10;;;23.70;99.90;;;;;;5108187;27;20488;-68
2022/10/26 11:57:05;;;;;;;14.50;13.43;;;23.50;99.90;;;;;;5104201;27;20484;-73
2022/10/26 11:59:39;;;;;;;14.70;13.50;;;23.60;99.90;;;;;;5107612;27;20457;-68
2022/10/26 12:02:14;;;;;;;14.30;13.60;;;23.40;99.90;;;;;;5107627;27;20461;-68
2022/10/26 12:04:45;;;;;;;14.03;13.27;;;23.30;99.90;;;;;;5104534;27;20767;-68
2022/10/26 12:07:21;;;;;;;14.20;13.30;;;23.40;99.90;;;;;;5104734;27;20481;-68
2022/10/26 12:09:49;;;;;;;14.37;13.57;;;23.80;99.90;;;;;;5103131;27;20464;-69
2022/10/26 12:12:24;;;;;;;14.20;13.30;;;23.90;99.90;;;;;;5107027;28;20517;-68
2022/10/26 12:14:59;;;;;;;14.90;13.47;;;24.10;99.90;;;;;;5105317;28;20461;-68
2022/10/26 12:17:33;;;;;;;14.70;13.20;;;24.50;99.90;;;;;;5110172;27;20504;-68
2022/10/26 12:20:18;;;;;;;14.10;13.50;;;24.60;99.90;;;;;;5108502;27;20531;-73
2022/10/26 12:22:45;;;;;;;14.27;13.40;;;24.50;99.90;;;;;;5109522;27;20457;-68
2022/10/26 12:25:21;;;;;;;13.73;13.03;;;24.10;99.90;;;;;;5106275;27;20870;-68
2022/10/26 12:27:57;;;;;;;15.37;13.80;;;24.40;99.90;;;;;;5107149;27;20483;-69
2022/10/26 12:30:31;;;;;;;13.93;13.33;;;24.30;99.90;;;;;;5107127;27;21004;-69
2022/10/26 12:33:00;;;;;;;14.57;13.57;;;24.30;99.90;;;;;;5109583;27;20468;-68
2022/10/26 12:35:42;;;;;;;14.33;13.17;;;24.00;99.90;;;;;;5108390;27;20547;-68
2022/10/26 12:38:48;;;;;;;15.90;15.00;;;23.70;99.90;;;;;;5110539;27;20456;-69
2022/10/26 12:41:25;;;;;;;15.17;14.27;;;23.20;99.90;;;;;;5087698;27;20465;-67
2022/10/26 12:44:03;;;;;;;14.97;14.23;;;23.30;99.90;;;;;;5101635;27;20472;-68
2022/10/26 12:46:41;;;;;;;14.67;13.87;;;23.60;99.90;;;;;;5106934;28;20540;-68
2022/10/26 12:49:58;;;;;;;15.30;14.40;;;23.60;99.90;;;;;;5106200;28;20484;-69